Time;durP1;ratioP1;P1;durP2;ratioP2;P2;SDS_P1;SDS_P2;PMS_P1;PMS_P2;Temp;Humidity;BMP_temperature;BMP_pressure;BME280_temperature;BME280_humidity;BME280_pressure;Samples;Min_cycle;Max_cycle;Signal;HPM_P1;HPM_P2
2022/03/08 00:00:51;;;;;;;9.40;4.45;;;;;;;;;;5035002;28;20025;-83
2022/03/08 00:03:18;;;;;;;10.10;3.88;;;;;;;;;;5033297;28;20021;-82
2022/03/08 00:05:44;;;;;;;9.80;3.60;;;;;;;;;;5032521;28;20049;-82
2022/03/08 00:08:09;;;;;;;9.05;4.38;;;;;;;;;;5040335;28;20028;-82
2022/03/08 00:10:34;;;;;;;9.65;4.40;;;;;;;;;;5045762;28;20024;-81
2022/03/08 00:13:00;;;;;;;9.75;3.75;;;;;;;;;;5048256;28;20016;-82
2022/03/08 00:15:25;;;;;;;10.02;3.88;;;;;;;;;;5048977;28;20413;-82
2022/03/08 00:17:52;;;;;;;10.98;4.03;;;;;;;;;;5030834;28;20029;-82
2022/03/08 00:20:17;;;;;;;11.88;4.30;;;;;;;;;;5028826;28;20075;-83
2022/03/08 00:22:45;;;;;;;9.40;3.75;;;;;;;;;;5047440;28;20013;-82
2022/03/08 00:25:11;;;;;;;7.03;3.75;;;;;;;;;;5049512;28;20022;-82
2022/03/08 00:27:37;;;;;;;11.30;4.25;;;;;;;;;;5026978;28;20081;-82
2022/03/08 00:30:03;;;;;;;7.55;3.10;;;;;;;;;;5009981;28;20018;-82
2022/03/08 00:32:31;;;;;;;9.68;3.75;;;;;;;;;;5027842;28;20028;-83
2022/03/08 00:34:57;;;;;;;7.47;3.78;;;;;;;;;;5026335;28;20024;-82
2022/03/08 00:37:22;;;;;;;9.27;3.55;;;;;;;;;;5011370;28;20081;-82
2022/03/08 00:39:47;;;;;;;8.43;4.00;;;;;;;;;;5012291;28;20025;-82
2022/03/08 00:42:13;;;;;;;7.80;3.08;;;;;;;;;;5028985;28;20110;-82
2022/03/08 00:44:39;;;;;;;8.75;3.80;;;;;;;;;;5028259;28;20010;-82
2022/03/08 00:47:05;;;;;;;8.95;4.00;;;;;;;;;;5029881;28;20021;-82
2022/03/08 00:49:31;;;;;;;9.30;3.67;;;;;;;;;;5046563;28;20031;-82
2022/03/08 00:51:59;;;;;;;10.68;4.55;;;;;;;;;;5045579;28;20081;-82
2022/03/08 00:54:24;;;;;;;10.98;4.53;;;;;;;;;;5015067;28;20018;-82
2022/03/08 00:56:50;;;;;;;10.32;3.67;;;;;;;;;;5007219;28;20022;-82
2022/03/08 00:59:15;;;;;;;11.95;4.30;;;;;;;;;;5038755;28;20443;-81
2022/03/08 01:01:40;;;;;;;8.93;3.53;;;;;;;;;;5027602;28;20101;-81
2022/03/08 01:04:06;;;;;;;8.32;4.05;;;;;;;;;;5023245;28;20459;-82
2022/03/08 01:06:31;;;;;;;7.22;3.78;;;;;;;;;;5022524;28;20018;-81
2022/03/08 01:08:56;;;;;;;8.05;3.65;;;;;;;;;;5020722;28;20496;-81
2022/03/08 01:11:22;;;;;;;7.72;3.60;;;;;;;;;;5023987;28;20089;-81
2022/03/08 01:13:47;;;;;;;8.15;3.80;;;;;;;;;;5017211;28;20018;-81
2022/03/08 01:16:12;;;;;;;9.50;3.85;;;;;;;;;;4999477;28;20557;-80
2022/03/08 01:18:38;;;;;;;7.40;3.60;;;;;;;;;;5021657;28;20009;-82
2022/03/08 01:21:03;;;;;;;11.68;3.47;;;;;;;;;;5014359;28;20025;-81
2022/03/08 01:23:32;;;;;;;9.40;3.60;;;;;;;;;;5039335;28;20384;-81
2022/03/08 01:25:57;;;;;;;;;;;;;;;;;;5041269;28;20045;-81
2022/03/08 01:28:25;;;;;;;8.00;3.60;;;;;;;;;;5033193;28;19952;-81
2022/03/08 01:30:51;;;;;;;9.48;4.10;;;;;;;;;;5028653;28;20275;-82
2022/03/08 01:33:16;;;;;;;8.52;3.13;;;;;;;;;;5047370;28;20477;-82
2022/03/08 01:35:41;;;;;;;8.40;3.53;;;;;;;;;;5040165;28;20026;-80
2022/03/08 01:38:07;;;;;;;8.13;3.45;;;;;;;;;;5025649;28;20018;-82
2022/03/08 01:40:32;;;;;;;7.38;3.33;;;;;;;;;;5028538;28;20026;-81
2022/03/08 01:42:57;;;;;;;7.10;3.83;;;;;;;;;;5031835;28;20017;-81
2022/03/08 01:45:23;;;;;;;7.10;3.55;;;;;;;;;;5028491;28;20024;-82
2022/03/08 01:47:49;;;;;;;7.70;3.60;;;;;;;;;;5048147;28;20052;-82
2022/03/08 01:50:15;;;;;;;6.90;3.35;;;;;;;;;;5047249;28;20021;-81
2022/03/08 01:52:40;;;;;;;7.75;3.42;;;;;;;;;;5035671;28;20026;-81
2022/03/08 01:55:07;;;;;;;7.55;3.75;;;;;;;;;;5043864;28;20053;-81
2022/03/08 01:57:32;;;;;;;9.95;4.00;;;;;;;;;;5046127;28;20032;-81
2022/03/08 01:59:57;;;;;;;11.20;3.55;;;;;;;;;;5020195;28;20077;-81
2022/03/08 02:02:23;;;;;;;8.63;3.53;;;;;;;;;;5027214;28;20021;-81
2022/03/08 02:04:48;;;;;;;10.63;3.60;;;;;;;;;;5034184;28;20022;-82
2022/03/08 02:07:13;;;;;;;6.30;3.45;;;;;;;;;;5030240;28;20018;-82
2022/03/08 02:09:38;;;;;;;10.70;3.83;;;;;;;;;;5031063;28;20024;-80
2022/03/08 02:12:04;;;;;;;11.88;3.90;;;;;;;;;;5044111;28;20033;-82
2022/03/08 02:14:30;;;;;;;9.63;3.40;;;;;;;;;;5043262;28;20077;-81
2022/03/08 02:16:55;;;;;;;9.70;3.40;;;;;;;;;;5035401;28;20030;-81
2022/03/08 02:19:20;;;;;;;6.95;3.25;;;;;;;;;;5032285;28;20057;-80
2022/03/08 02:21:45;;;;;;;8.57;2.95;;;;;;;;;;5031594;28;20034;-82
2022/03/08 02:24:10;;;;;;;6.40;2.75;;;;;;;;;;5035528;28;20018;-83
2022/03/08 02:26:36;;;;;;;8.45;3.65;;;;;;;;;;5051217;28;20089;-82
2022/03/08 02:29:03;;;;;;;7.60;3.00;;;;;;;;;;5056137;28;20045;-82
2022/03/08 02:31:29;;;;;;;8.77;3.15;;;;;;;;;;5031573;28;20073;-81
2022/03/08 02:33:54;;;;;;;8.95;3.17;;;;;;;;;;5043018;28;20473;-81
2022/03/08 02:36:19;;;;;;;5.50;2.88;;;;;;;;;;5039177;28;20077;-81
2022/03/08 02:38:44;;;;;;;8.73;3.33;;;;;;;;;;5051872;28;20014;-82
2022/03/08 02:41:10;;;;;;;9.50;3.60;;;;;;;;;;5054272;28;20026;-82
2022/03/08 02:43:35;;;;;;;6.63;3.35;;;;;;;;;;5053042;28;20503;-83
2022/03/08 02:46:00;;;;;;;7.78;3.25;;;;;;;;;;5038689;28;20084;-82
2022/03/08 02:48:26;;;;;;;6.60;3.40;;;;;;;;;;5055961;28;20059;-82
2022/03/08 02:50:52;;;;;;;6.43;3.28;;;;;;;;;;5056122;28;20062;-83
2022/03/08 02:53:17;;;;;;;9.25;3.65;;;;;;;;;;5038600;28;20013;-81
2022/03/08 02:55:42;;;;;;;9.63;3.28;;;;;;;;;;5039877;28;20021;-83
2022/03/08 02:58:07;;;;;;;10.63;3.42;;;;;;;;;;5040241;28;20093;-82
2022/03/08 03:00:33;;;;;;;7.72;3.15;;;;;;;;;;5040441;28;20081;-81
2022/03/08 03:02:58;;;;;;;11.60;3.90;;;;;;;;;;5039024;28;20056;-81
2022/03/08 03:05:24;;;;;;;5.53;2.90;;;;;;;;;;5046380;28;20018;-82
2022/03/08 03:07:49;;;;;;;7.60;3.50;;;;;;;;;;5037178;28;20010;-82
2022/03/08 03:10:16;;;;;;;8.45;4.38;;;;;;;;;;5019563;28;20162;-82
2022/03/08 03:12:41;;;;;;;10.25;3.95;;;;;;;;;;5033088;28;20097;-82
2022/03/08 03:15:08;;;;;;;8.90;4.03;;;;;;;;;;5057039;28;20006;-80
2022/03/08 03:17:33;;;;;;;12.60;4.00;;;;;;;;;;5035424;28;20018;-82
2022/03/08 03:19:59;;;;;;;9.88;3.63;;;;;;;;;;5043300;28;20064;-81
2022/03/08 03:22:24;;;;;;;10.95;4.20;;;;;;;;;;5057866;28;20002;-83
2022/03/08 03:24:49;;;;;;;17.50;4.57;;;;;;;;;;5025874;28;20025;-81
2022/03/08 03:27:14;;;;;;;14.80;5.60;;;;;;;;;;5037857;28;20010;-82
2022/03/08 03:29:40;;;;;;;14.60;5.00;;;;;;;;;;5041639;28;20024;-82
2022/03/08 03:32:05;;;;;;;9.20;4.20;;;;;;;;;;5054877;28;20389;-82
2022/03/08 03:34:31;;;;;;;11.87;4.30;;;;;;;;;;5051767;28;20022;-82
2022/03/08 03:36:56;;;;;;;12.23;5.17;;;;;;;;;;5034961;28;20021;-82
2022/03/08 03:39:21;;;;;;;12.53;4.80;;;;;;;;;;5032479;28;20086;-81
2022/03/08 03:41:46;;;;;;;11.37;4.53;;;;;;;;;;5055263;28;20014;-82
2022/03/08 03:44:11;;;;;;;15.90;5.33;;;;;;;;;;5038881;28;20290;-81
2022/03/08 03:46:39;;;;;;;13.70;5.65;;;;;;;;;;5056445;28;20032;-82
2022/03/08 03:49:04;;;;;;;9.30;4.50;;;;;;;;;;5038971;28;20013;-82
2022/03/08 03:51:29;;;;;;;10.00;4.28;;;;;;;;;;5040421;28;20024;-82
2022/03/08 03:53:55;;;;;;;8.20;4.00;;;;;;;;;;5057395;28;20052;-81
2022/03/08 03:56:20;;;;;;;37.97;14.90;;;;;;;;;;5041243;28;20006;-82
2022/03/08 03:58:45;;;;;;;28.27;12.10;;;;;;;;;;5038528;28;20030;-82
2022/03/08 04:01:11;;;;;;;52.57;19.60;;;;;;;;;;5038398;28;20014;-82
2022/03/08 04:03:36;;;;;;;18.60;8.30;;;;;;;;;;5036624;28;20006;-82
2022/03/08 04:06:01;;;;;;;13.68;4.90;;;;;;;;;;5021056;28;20034;-82
2022/03/08 04:08:26;;;;;;;10.67;4.33;;;;;;;;;;5021795;28;20018;-82
2022/03/08 04:10:52;;;;;;;8.73;4.33;;;;;;;;;;5022492;28;20053;-81
2022/03/08 04:13:17;;;;;;;10.93;4.00;;;;;;;;;;5053406;28;20006;-83
2022/03/08 04:15:43;;;;;;;10.63;4.80;;;;;;;;;;5058392;28;20097;-82
2022/03/08 04:18:08;;;;;;;9.47;4.57;;;;;;;;;;5057098;28;20021;-81
2022/03/08 04:20:34;;;;;;;15.80;4.30;;;;;;;;;;5043796;28;20052;-82
2022/03/08 04:22:59;;;;;;;13.83;4.10;;;;;;;;;;5034887;28;20022;-82
2022/03/08 04:25:25;;;;;;;11.27;5.57;;;;;;;;;;5021274;28;20001;-81
2022/03/08 04:27:50;;;;;;;17.83;6.90;;;;;;;;;;5036692;28;20017;-82
2022/03/08 04:30:16;;;;;;;11.10;5.23;;;;;;;;;;5047072;28;20109;-82
2022/03/08 04:32:41;;;;;;;9.40;4.03;;;;;;;;;;5050587;28;20028;-80
2022/03/08 04:35:06;;;;;;;10.90;4.93;;;;;;;;;;5053879;28;20014;-81
2022/03/08 04:37:32;;;;;;;10.23;4.73;;;;;;;;;;5030644;28;20021;-81
2022/03/08 04:39:58;;;;;;;9.43;3.90;;;;;;;;;;5016506;28;20028;-81
2022/03/08 04:42:23;;;;;;;11.63;4.83;;;;;;;;;;5027558;28;20018;-81
2022/03/08 04:44:48;;;;;;;8.37;4.40;;;;;;;;;;5054881;28;20036;-82
2022/03/08 04:47:13;;;;;;;11.47;4.10;;;;;;;;;;5038668;28;20052;-81
2022/03/08 04:49:38;;;;;;;12.17;4.93;;;;;;;;;;5056397;28;20009;-82
2022/03/08 04:52:04;;;;;;;16.07;4.70;;;;;;;;;;5055260;28;20033;-82
2022/03/08 04:54:29;;;;;;;15.17;4.97;;;;;;;;;;5054870;28;20026;-82
2022/03/08 04:56:54;;;;;;;13.80;4.97;;;;;;;;;;5037999;28;20004;-82
2022/03/08 04:59:19;;;;;;;14.07;5.00;;;;;;;;;;5039312;28;20033;-82
2022/03/08 05:01:45;;;;;;;16.83;7.27;;;;;;;;;;5058426;28;20018;-82
2022/03/08 05:04:10;;;;;;;13.37;4.60;;;;;;;;;;5043647;28;20128;-82
2022/03/08 05:06:36;;;;;;;17.80;4.87;;;;;;;;;;5059948;28;20032;-80
2022/03/08 05:09:01;;;;;;;11.00;4.33;;;;;;;;;;5043944;28;20120;-82
2022/03/08 05:11:26;;;;;;;12.77;4.78;;;;;;;;;;5059021;28;20002;-83
2022/03/08 05:13:51;;;;;;;10.73;4.60;;;;;;;;;;5061778;28;20017;-81
2022/03/08 05:16:17;;;;;;;11.63;4.87;;;;;;;;;;5060037;28;20101;-81
2022/03/08 05:18:42;;;;;;;11.83;4.67;;;;;;;;;;5042801;28;20031;-80
2022/03/08 05:21:07;;;;;;;12.77;4.83;;;;;;;;;;5035663;28;20029;-81
2022/03/08 05:23:33;;;;;;;12.90;4.73;;;;;;;;;;5059302;28;20014;-81
2022/03/08 05:25:58;;;;;;;11.13;4.47;;;;;;;;;;5061551;28;20009;-81
2022/03/08 05:28:24;;;;;;;12.33;5.20;;;;;;;;;;5060406;28;20022;-81
2022/03/08 05:30:50;;;;;;;9.20;4.40;;;;;;;;;;5055028;28;20025;-80
2022/03/08 05:33:16;;;;;;;16.10;6.07;;;;;;;;;;5040437;28;20021;-80
2022/03/08 05:35:41;;;;;;;10.77;5.17;;;;;;;;;;5052533;28;20085;-82
2022/03/08 05:38:06;;;;;;;10.23;4.30;;;;;;;;;;5018207;28;20018;-82
2022/03/08 05:40:33;;;;;;;12.87;5.20;;;;;;;;;;5034333;28;20002;-82
2022/03/08 05:43:00;;;;;;;14.83;5.67;;;;;;;;;;5034247;28;20072;-82
2022/03/08 05:45:25;;;;;;;18.40;5.77;;;;;;;;;;5038925;28;20040;-84
2022/03/08 05:47:50;;;;;;;17.23;5.90;;;;;;;;;;5056350;28;20021;-82
2022/03/08 05:50:16;;;;;;;10.20;5.30;;;;;;;;;;5037960;28;20089;-81
2022/03/08 05:52:41;;;;;;;15.47;4.83;;;;;;;;;;5054217;28;20053;-82
2022/03/08 05:55:07;;;;;;;13.37;5.23;;;;;;;;;;5040635;28;20017;-82
2022/03/08 05:57:32;;;;;;;16.93;5.27;;;;;;;;;;5052688;28;20037;-81
2022/03/08 05:59:57;;;;;;;14.17;4.80;;;;;;;;;;5035698;28;20041;-82
2022/03/08 06:02:22;;;;;;;13.27;5.13;;;;;;;;;;5031064;28;20444;-83
2022/03/08 06:04:48;;;;;;;15.37;5.13;;;;;;;;;;5013210;28;20032;-83
2022/03/08 06:07:13;;;;;;;14.77;5.07;;;;;;;;;;5016988;28;20085;-83
2022/03/08 06:09:38;;;;;;;13.57;4.73;;;;;;;;;;5039542;28;20010;-82
2022/03/08 06:12:04;;;;;;;18.07;5.93;;;;;;;;;;5055262;28;20384;-82
2022/03/08 06:14:29;;;;;;;13.93;6.43;;;;;;;;;;5037977;28;20017;-82
2022/03/08 06:16:54;;;;;;;14.73;6.53;;;;;;;;;;5051421;28;20032;-82
2022/03/08 06:19:20;;;;;;;12.73;6.10;;;;;;;;;;5035901;28;20041;-83
2022/03/08 06:21:45;;;;;;;13.65;7.00;;;;;;;;;;5034762;28;20026;-84
2022/03/08 06:24:11;;;;;;;13.50;6.00;;;;;;;;;;5054613;28;20021;-83
2022/03/08 06:26:37;;;;;;;16.50;5.80;;;;;;;;;;5038641;28;20029;-82
2022/03/08 06:29:02;;;;;;;13.10;5.57;;;;;;;;;;5049668;28;20033;-82
2022/03/08 06:31:27;;;;;;;11.53;5.40;;;;;;;;;;5046210;28;20017;-83
2022/03/08 06:33:52;;;;;;;15.07;6.07;;;;;;;;;;5033140;28;20018;-82
2022/03/08 06:36:18;;;;;;;15.20;5.20;;;;;;;;;;5053708;28;20020;-82
2022/03/08 06:38:43;;;;;;;13.13;5.90;;;;;;;;;;5056305;28;20018;-82
2022/03/08 06:41:08;;;;;;;13.17;5.20;;;;;;;;;;5054047;28;20032;-82
2022/03/08 06:43:34;;;;;;;13.87;5.87;;;;;;;;;;5037135;28;20001;-83
2022/03/08 06:45:59;;;;;;;11.80;5.23;;;;;;;;;;5034369;28;20469;-82
2022/03/08 06:48:24;;;;;;;13.20;4.37;;;;;;;;;;5035693;28;20029;-84
2022/03/08 06:50:50;;;;;;;15.40;5.60;;;;;;;;;;5058278;28;20048;-83
2022/03/08 06:53:15;;;;;;;16.60;5.10;;;;;;;;;;5058068;28;20021;-83
2022/03/08 06:55:41;;;;;;;12.17;5.40;;;;;;;;;;5040987;28;20032;-83
2022/03/08 06:58:08;;;;;;;11.63;4.50;;;;;;;;;;5057011;28;20077;-83
2022/03/08 07:00:34;;;;;;;13.60;5.43;;;;;;;;;;5028049;28;20082;-82
2022/03/08 07:02:59;;;;;;;11.97;5.77;;;;;;;;;;5036689;28;20002;-83
2022/03/08 07:05:25;;;;;;;16.63;6.60;;;;;;;;;;5056892;28;20044;-83
2022/03/08 07:07:50;;;;;;;13.73;6.20;;;;;;;;;;5039994;28;20036;-82
2022/03/08 07:10:16;;;;;;;18.07;7.27;;;;;;;;;;5047717;28;20085;-83
2022/03/08 07:12:41;;;;;;;14.73;6.37;;;;;;;;;;5021521;28;20057;-81
2022/03/08 07:15:07;;;;;;;11.63;5.30;;;;;;;;;;5021620;28;20010;-83
2022/03/08 07:17:32;;;;;;;12.00;5.90;;;;;;;;;;5037729;28;20006;-83
2022/03/08 07:19:58;;;;;;;17.65;6.78;;;;;;;;;;5045424;28;20025;-83
2022/03/08 07:22:23;;;;;;;17.98;7.54;;;;;;;;;;5038101;28;20017;-82
2022/03/08 07:24:48;;;;;;;10.52;5.70;;;;;;;;;;5019723;28;20060;-83
2022/03/08 07:27:14;;;;;;;16.65;6.05;;;;;;;;;;5030880;28;20026;-83
2022/03/08 07:29:39;;;;;;;18.70;6.47;;;;;;;;;;5012701;28;20568;-83
2022/03/08 07:32:05;;;;;;;17.25;5.55;;;;;;;;;;5036821;28;20018;-82
2022/03/08 07:34:30;;;;;;;10.90;5.47;;;;;;;;;;5039412;28;20013;-83
2022/03/08 07:36:55;;;;;;;13.52;6.07;;;;;;;;;;5042520;28;20041;-83
2022/03/08 07:39:20;;;;;;;10.48;5.72;;;;;;;;;;5039125;28;20064;-83
2022/03/08 08:59:25;;;;;;;9.43;4.05;;;;;;;;;;5289196;23;20038;-83
2022/03/08 09:01:51;;;;;;;9.48;4.68;;;;;;;;;;5111355;23;20057;-82
2022/03/08 09:04:16;;;;;;;8.98;4.07;;;;;;;;;;5012307;28;20056;-82
2022/03/08 09:06:42;;;;;;;10.27;4.55;;;;;;;;;;5016309;28;20099;-84
2022/03/08 09:19:28;;;;;;;9.52;4.20;;;;;;;;;;5170324;23;20034;-83
2022/03/08 09:21:55;;;;;;;14.70;4.18;;;;;;;;;;5032450;28;20018;-84
2022/03/08 09:57:50;;;;;;;7.85;3.25;;;;;;;;;;5772179;23;20081;-89
2022/03/08 10:00:15;;;;;;;7.97;3.75;;;;;;;;;;5055876;23;20042;-90
2022/03/08 10:02:45;;;;;;;7.68;2.80;;;;;;;;;;5018051;28;20018;-91
2022/03/08 10:05:10;;;;;;;6.38;2.83;;;;;;;;;;5017334;28;20014;-89
2022/03/08 10:07:35;;;;;;;10.68;3.05;;;;;;;;;;5013362;28;20018;-88
2022/03/08 10:10:01;;;;;;;6.35;2.50;;;;;;;;;;5008281;28;20022;-91
2022/03/08 10:12:27;;;;;;;6.55;3.25;;;;;;;;;;5008866;28;20105;-91
2022/03/08 10:14:53;;;;;;;5.20;2.67;;;;;;;;;;5026551;28;20021;-92
2022/03/08 10:17:31;;;;;;;9.30;3.00;;;;;;;;;;5011473;28;20024;-91
2022/03/08 10:19:56;;;;;;;;;;;;;;;;;;5010177;28;20053;-91
2022/03/08 10:22:26;;;;;;;9.02;2.70;;;;;;;;;;5009054;28;19906;-89
2022/03/08 10:24:52;;;;;;;8.23;3.75;;;;;;;;;;5009421;28;20088;-87
2022/03/08 10:27:18;;;;;;;8.35;3.38;;;;;;;;;;5008497;28;20026;-87
2022/03/08 10:29:48;;;;;;;4.93;2.30;;;;;;;;;;5008322;28;20492;-89
2022/03/08 10:32:16;;;;;;;5.88;2.53;;;;;;;;;;5026011;28;20025;-84
2022/03/08 10:34:42;;;;;;;8.20;2.67;;;;;;;;;;5009213;28;20057;-85
2022/03/08 10:37:14;;;;;;;5.28;3.00;;;;;;;;;;5026525;28;20017;-86
2022/03/08 10:39:52;;;;;;;5.13;2.30;;;;;;;;;;5007183;28;20021;-85
2022/03/08 10:42:21;;;;;;;4.90;2.58;;;;;;;;;;5007400;28;20026;-85
2022/03/08 10:44:46;;;;;;;5.68;2.53;;;;;;;;;;5006914;28;20034;-84
2022/03/08 10:47:12;;;;;;;5.90;2.78;;;;;;;;;;5004394;28;20507;-84
2022/03/08 10:49:57;;;;;;;5.50;2.80;;;;;;;;;;5010848;28;20163;-85
2022/03/08 10:52:27;;;;;;;14.80;4.55;;;;;;;;;;5013171;28;20438;-88
2022/03/08 10:54:52;;;;;;;5.43;3.30;;;;;;;;;;4995654;28;20571;-86
2022/03/08 10:57:18;;;;;;;6.23;2.70;;;;;;;;;;5012957;28;20046;-85
2022/03/08 10:59:53;;;;;;;5.53;2.80;;;;;;;;;;4994075;28;20321;-84
2022/03/08 11:02:20;;;;;;;6.63;3.15;;;;;;;;;;5012681;28;20021;-84
2022/03/08 11:04:45;;;;;;;6.30;2.35;;;;;;;;;;4994692;28;20037;-84
2022/03/08 11:07:10;;;;;;;5.13;2.70;;;;;;;;;;4995842;28;20025;-83
2022/03/08 11:09:36;;;;;;;6.63;2.95;;;;;;;;;;4999356;28;20021;-83
2022/03/08 11:12:01;;;;;;;7.82;3.08;;;;;;;;;;5019707;28;20030;-84
2022/03/08 11:14:26;;;;;;;5.57;2.90;;;;;;;;;;5015143;28;20018;-85
2022/03/08 11:16:51;;;;;;;5.53;2.77;;;;;;;;;;5017597;28;20243;-88
2022/03/08 11:19:18;;;;;;;6.35;2.90;;;;;;;;;;5001757;28;20059;-88
2022/03/08 11:21:43;;;;;;;5.85;2.40;;;;;;;;;;4999584;28;20025;-87
2022/03/08 11:24:08;;;;;;;5.10;2.45;;;;;;;;;;5015810;28;20082;-88
2022/03/08 11:26:34;;;;;;;5.05;2.33;;;;;;;;;;4997648;28;20349;-85
2022/03/08 11:29:00;;;;;;;5.80;3.47;;;;;;;;;;5015790;28;20497;-85
2022/03/08 11:31:29;;;;;;;5.28;2.83;;;;;;;;;;4996879;28;20517;-87
2022/03/08 11:33:58;;;;;;;7.82;2.88;;;;;;;;;;4997219;28;20025;-85
2022/03/08 11:36:33;;;;;;;6.07;2.72;;;;;;;;;;5012867;28;20022;-84
2022/03/08 11:39:11;;;;;;;8.13;3.42;;;;;;;;;;5010956;28;20045;-84
2022/03/08 11:41:37;;;;;;;8.95;4.45;;;;;;;;;;5013464;28;20020;-85
2022/03/08 11:44:02;;;;;;;5.97;3.25;;;;;;;;;;4995145;28;20118;-85
2022/03/08 11:46:28;;;;;;;4.70;2.20;;;;;;;;;;5015960;28;20145;-86
2022/03/08 11:48:57;;;;;;;5.28;2.42;;;;;;;;;;5014711;28;20025;-86
2022/03/08 11:51:23;;;;;;;5.28;2.42;;;;;;;;;;5018211;28;20017;-85
2022/03/08 11:54:02;;;;;;;5.03;2.10;;;;;;;;;;5019399;28;20052;-86
2022/03/08 11:56:27;;;;;;;4.40;1.85;;;;;;;;;;4996998;28;20014;-86
2022/03/08 11:58:52;;;;;;;3.13;1.50;;;;;;;;;;4998503;28;20064;-86
2022/03/08 12:01:22;;;;;;;4.27;2.07;;;;;;;;;;5016688;28;20734;-85
2022/03/08 12:03:54;;;;;;;3.75;1.63;;;;;;;;;;4998778;28;20025;-86
2022/03/08 12:06:28;;;;;;;3.83;1.70;;;;;;;;;;5018021;28;20014;-82
2022/03/08 12:08:59;;;;;;;3.45;1.63;;;;;;;;;;4996964;28;20022;-83
2022/03/08 12:14:01;;;;;;;6.00;1.70;;;;;;;;;;5045683;28;20048;-88
2022/03/08 12:16:30;;;;;;;5.10;2.10;;;;;;;;;;5048422;28;20012;-88
2022/03/08 12:18:56;;;;;;;5.40;2.28;;;;;;;;;;5041147;28;20019;-89
2022/03/08 12:21:21;;;;;;;6.20;2.90;;;;;;;;;;5035590;28;20063;-88
2022/03/08 12:23:57;;;;;;;7.80;2.27;;;;;;;;;;5040315;28;20017;-88
2022/03/08 12:26:29;;;;;;;3.88;1.90;;;;;;;;;;5025731;28;20025;-88
2022/03/08 12:29:04;;;;;;;5.70;2.38;;;;;;;;;;5015700;28;20017;-87
2022/03/08 12:31:29;;;;;;;3.88;1.65;;;;;;;;;;5033795;28;20017;-88
2022/03/08 12:34:07;;;;;;;6.33;2.30;;;;;;;;;;5017772;28;20469;-86
2022/03/08 12:36:32;;;;;;;;;;;;;;;;;;5018308;28;20247;-88
2022/03/08 12:38:58;;;;;;;5.40;1.70;;;;;;;;;;5017669;28;19912;-89
2022/03/08 12:41:24;;;;;;;3.37;1.57;;;;;;;;;;5033336;28;20014;-88
2022/03/08 12:44:15;;;;;;;4.25;1.95;;;;;;;;;;5016119;28;20258;-88
2022/03/08 12:46:40;;;;;;;3.78;1.58;;;;;;;;;;5015644;28;20029;-88
2022/03/08 12:49:06;;;;;;;3.28;1.63;;;;;;;;;;5015811;28;20049;-88
2022/03/08 12:51:31;;;;;;;5.25;1.98;;;;;;;;;;5019399;28;20025;-89
2022/03/08 12:54:01;;;;;;;3.85;1.88;;;;;;;;;;5016193;28;20021;-88
2022/03/08 12:56:31;;;;;;;3.15;1.70;;;;;;;;;;5016759;28;20440;-89
2022/03/08 12:59:04;;;;;;;3.75;2.00;;;;;;;;;;5031679;28;20013;-87
2022/03/08 13:01:29;;;;;;;3.05;1.38;;;;;;;;;;5005790;28;20050;-88
2022/03/08 13:03:54;;;;;;;3.13;1.60;;;;;;;;;;5032989;28;20033;-87
2022/03/08 13:06:19;;;;;;;3.57;1.37;;;;;;;;;;5017753;28;20278;-88
2022/03/08 13:08:46;;;;;;;3.85;1.60;;;;;;;;;;5016029;28;20266;-90
2022/03/08 13:11:12;;;;;;;3.63;1.70;;;;;;;;;;5016488;28;20029;-89
2022/03/08 13:13:38;;;;;;;5.28;1.80;;;;;;;;;;5015506;28;20052;-88
2022/03/08 13:16:03;;;;;;;3.38;1.60;;;;;;;;;;5033286;28;20044;-91
2022/03/08 13:18:39;;;;;;;3.78;1.55;;;;;;;;;;5015395;28;20062;-89
2022/03/08 13:21:08;;;;;;;3.25;1.60;;;;;;;;;;5033425;28;20477;-87
2022/03/08 13:23:35;;;;;;;6.28;2.20;;;;;;;;;;5018974;28;20060;-87
2022/03/08 13:26:01;;;;;;;4.93;1.92;;;;;;;;;;5019840;28;20044;-90
2022/03/08 13:28:27;;;;;;;15.75;3.70;;;;;;;;;;5038861;28;20076;-88
2022/03/08 13:30:54;;;;;;;5.85;2.00;;;;;;;;;;5019453;28;20033;-90
2022/03/08 13:33:19;;;;;;;2.85;1.35;;;;;;;;;;5022538;28;20025;-87
2022/03/08 13:35:44;;;;;;;5.60;2.07;;;;;;;;;;5034569;28;20437;-87
2022/03/08 13:38:11;;;;;;;3.00;1.50;;;;;;;;;;5029059;28;20075;-88
2022/03/08 13:40:36;;;;;;;13.95;2.35;;;;;;;;;;5031316;28;20049;-88
2022/03/08 13:43:02;;;;;;;8.43;2.42;;;;;;;;;;5042191;28;20024;-89
2022/03/08 13:45:28;;;;;;;7.80;1.80;;;;;;;;;;5038596;28;20025;-87
2022/03/08 13:47:58;;;;;;;4.57;1.65;;;;;;;;;;5021349;28;20181;-87
2022/03/08 13:50:24;;;;;;;4.35;1.50;;;;;;;;;;5040689;28;20457;-87
2022/03/08 13:52:57;;;;;;;7.22;2.10;;;;;;;;;;5040045;28;20029;-86
2022/03/08 13:55:29;;;;;;;6.95;2.25;;;;;;;;;;5048792;28;20017;-88
2022/03/08 13:58:06;;;;;;;8.90;2.47;;;;;;;;;;5026279;28;20044;-87
2022/03/08 14:00:33;;;;;;;3.65;1.40;;;;;;;;;;5039656;28;20025;-88
2022/03/08 14:02:58;;;;;;;4.13;1.60;;;;;;;;;;5031205;28;20076;-86
2022/03/08 14:05:24;;;;;;;2.97;1.63;;;;;;;;;;5043194;28;20036;-87
2022/03/08 14:07:56;;;;;;;4.32;2.08;;;;;;;;;;5050413;28;20369;-85
2022/03/08 14:10:23;;;;;;;4.43;1.88;;;;;;;;;;5018677;28;20029;-84
2022/03/08 14:12:48;;;;;;;7.15;2.60;;;;;;;;;;5032280;28;20384;-88
2022/03/08 14:15:13;;;;;;;7.50;1.83;;;;;;;;;;5019514;28;20025;-86
2022/03/08 14:17:39;;;;;;;4.30;1.90;;;;;;;;;;5039812;28;20061;-84
2022/03/08 14:20:14;;;;;;;5.40;1.85;;;;;;;;;;5046969;28;20040;-86
2022/03/08 14:22:59;;;;;;;6.82;1.88;;;;;;;;;;5048951;28;20396;-86
2022/03/08 14:25:25;;;;;;;6.93;2.50;;;;;;;;;;5020275;28;20024;-85
2022/03/08 14:27:50;;;;;;;4.05;1.88;;;;;;;;;;5047695;28;20021;-83
2022/03/08 14:30:27;;;;;;;3.15;1.70;;;;;;;;;;5017534;28;20018;-84
2022/03/08 14:33:01;;;;;;;3.95;1.90;;;;;;;;;;5032428;28;20556;-84
2022/03/08 14:35:27;;;;;;;3.67;1.80;;;;;;;;;;5036250;28;20025;-84
2022/03/08 14:38:01;;;;;;;5.00;2.23;;;;;;;;;;5049197;28;20360;-84
2022/03/08 14:40:37;;;;;;;6.60;2.00;;;;;;;;;;5056149;28;20250;-85
2022/03/08 14:43:03;;;;;;;9.57;2.63;;;;;;;;;;5029756;28;20025;-85
2022/03/08 14:45:28;;;;;;;5.22;1.90;;;;;;;;;;5044960;28;20011;-85
2022/03/08 14:47:53;;;;;;;4.30;2.00;;;;;;;;;;5052760;28;20066;-82
2022/03/08 14:50:19;;;;;;;6.97;1.97;;;;;;;;;;5046416;28;20022;-87
2022/03/08 14:52:45;;;;;;;22.30;11.00;;;;;;;;;;5051557;28;20250;-87
2022/03/08 14:55:14;;;;;;;8.40;4.18;;;;;;;;;;5050810;28;20251;-85
2022/03/08 14:57:40;;;;;;;48.00;25.30;;;;;;;;;;5051279;28;20022;-84
2022/03/08 15:00:07;;;;;;;50.60;25.40;;;;;;;;;;5047178;28;20084;-86
2022/03/08 15:02:32;;;;;;;45.42;22.00;;;;;;;;;;5048782;28;20495;-85
2022/03/08 15:04:58;;;;;;;11.77;6.07;;;;;;;;;;5038060;28;20137;-85
2022/03/08 15:07:26;;;;;;;6.30;3.13;;;;;;;;;;5014297;28;20886;-85
2022/03/08 15:09:52;;;;;;;7.63;2.28;;;;;;;;;;5016090;28;20113;-86
2022/03/08 15:12:17;;;;;;;5.55;2.08;;;;;;;;;;5044281;28;20103;-86
2022/03/08 15:14:43;;;;;;;5.75;2.20;;;;;;;;;;5039211;28;20028;-87
2022/03/08 15:17:09;;;;;;;6.25;2.33;;;;;;;;;;5015731;28;20025;-87
2022/03/08 15:19:34;;;;;;;7.30;3.28;;;;;;;;;;5037900;28;20148;-86
2022/03/08 15:21:59;;;;;;;10.63;3.33;;;;;;;;;;5043981;28;20021;-87
2022/03/08 15:24:24;;;;;;;6.00;2.97;;;;;;;;;;5032694;28;20792;-86
2022/03/08 15:26:50;;;;;;;5.68;2.08;;;;;;;;;;5032242;28;20254;-88
2022/03/08 15:29:19;;;;;;;10.90;4.65;;;;;;;;;;5047853;28;20074;-86
2022/03/08 15:31:44;;;;;;;7.60;2.10;;;;;;;;;;5038362;28;20024;-88
2022/03/08 15:34:10;;;;;;;6.60;2.50;;;;;;;;;;5043245;28;20014;-88
2022/03/08 15:36:35;;;;;;;5.13;2.35;;;;;;;;;;5048193;28;20021;-88
2022/03/08 15:39:01;;;;;;;4.90;2.00;;;;;;;;;;5038191;28;20025;-86
2022/03/08 15:41:26;;;;;;;7.63;2.90;;;;;;;;;;5040414;28;20021;-86
2022/03/08 15:46:27;;;;;;;4.15;2.17;;;;;;;;;;5155880;23;20042;-83
2022/03/08 15:48:52;;;;;;;15.98;6.80;;;;;;;;;;5020438;28;20017;-83
2022/03/08 15:51:20;;;;;;;7.50;3.70;;;;;;;;;;5037693;28;20026;-83
2022/03/08 15:53:49;;;;;;;5.35;2.50;;;;;;;;;;5057067;28;20024;-83
2022/03/08 15:56:15;;;;;;;5.57;2.45;;;;;;;;;;5039793;28;20100;-83
2022/03/08 15:58:40;;;;;;;26.20;11.15;;;;;;;;;;5052899;28;20017;-84
2022/03/08 16:01:06;;;;;;;35.65;15.25;;;;;;;;;;5034513;28;20021;-83
2022/03/08 16:03:32;;;;;;;24.55;10.15;;;;;;;;;;5050248;28;20087;-84
2022/03/08 16:05:58;;;;;;;6.13;2.17;;;;;;;;;;5049392;28;20524;-83
2022/03/08 16:08:24;;;;;;;5.03;2.15;;;;;;;;;;5031002;28;20075;-83
2022/03/08 16:10:49;;;;;;;11.15;3.22;;;;;;;;;;5031702;28;20025;-82
2022/03/08 16:13:15;;;;;;;6.35;2.65;;;;;;;;;;5032313;28;20040;-82
2022/03/08 16:15:44;;;;;;;3.00;1.67;;;;;;;;;;5030950;28;20024;-84
2022/03/08 16:18:09;;;;;;;;;;;;;;;;;;5026317;28;20378;-81
2022/03/08 16:20:35;;;;;;;6.65;2.03;;;;;;;;;;5025718;28;19912;-84
2022/03/08 16:23:02;;;;;;;12.30;3.38;;;;;;;;;;5030091;28;20088;-83
2022/03/08 16:25:31;;;;;;;6.00;1.70;;;;;;;;;;5044735;28;20017;-84
2022/03/08 16:27:57;;;;;;;8.25;1.80;;;;;;;;;;5056015;28;20097;-82
2022/03/08 16:30:23;;;;;;;5.35;2.63;;;;;;;;;;5040852;28;20010;-84
2022/03/08 16:32:48;;;;;;;10.20;2.20;;;;;;;;;;5040369;28;20025;-83
2022/03/08 16:35:19;;;;;;;10.70;1.85;;;;;;;;;;5040416;28;20009;-83
2022/03/08 16:37:48;;;;;;;4.78;2.00;;;;;;;;;;5057563;28;20025;-84
2022/03/08 16:40:14;;;;;;;4.43;1.70;;;;;;;;;;5039687;28;20020;-83